sensor_id;sensor_type;location;lat;lon;timestamp;temperature;humidity
16625;DHT22;8426;48.496;9.098;2022-12-20T00:01:10;0.90;99.90
16625;DHT22;8426;48.496;9.098;2022-12-20T00:06:13;0.90;99.90
16625;DHT22;8426;48.496;9.098;2022-12-20T00:11:16;0.80;99.90
16625;DHT22;8426;48.496;9.098;2022-12-20T00:16:23;0.70;99.90
16625;DHT22;8426;48.496;9.098;2022-12-20T00:21:28;0.70;99.90
16625;DHT22;8426;48.496;9.098;2022-12-20T00:26:33;0.60;99.90
16625;DHT22;8426;48.496;9.098;2022-12-20T00:31:37;0.60;99.90
16625;DHT22;8426;48.496;9.098;2022-12-20T00:36:41;0.50;99.90
16625;DHT22;8426;48.496;9.098;2022-12-20T00:41:45;0.40;99.90
16625;DHT22;8426;48.496;9.098;2022-12-20T00:46:49;0.60;99.90
16625;DHT22;8426;48.496;9.098;2022-12-20T00:51:53;0.60;99.90
16625;DHT22;8426;48.496;9.098;2022-12-20T00:56:56;0.90;99.90
16625;DHT22;8426;48.496;9.098;2022-12-20T01:02:01;0.80;99.90
16625;DHT22;8426;48.496;9.098;2022-12-20T01:07:05;0.80;99.90
16625;DHT22;8426;48.496;9.098;2022-12-20T01:12:08;0.70;99.90
16625;DHT22;8426;48.496;9.098;2022-12-20T01:17:13;0.70;99.90
16625;DHT22;8426;48.496;9.098;2022-12-20T01:22:17;0.60;99.90
16625;DHT22;8426;48.496;9.098;2022-12-20T01:27:20;0.70;99.90
16625;DHT22;8426;48.496;9.098;2022-12-20T01:32:24;0.80;99.90
16625;DHT22;8426;48.496;9.098;2022-12-20T01:37:28;0.80;99.90
16625;DHT22;8426;48.496;9.098;2022-12-20T01:42:31;1.00;99.90
16625;DHT22;8426;48.496;9.098;2022-12-20T01:47:37;0.90;99.90
16625;DHT22;8426;48.496;9.098;2022-12-20T01:52:42;0.90;99.90
16625;DHT22;8426;48.496;9.098;2022-12-20T01:57:49;0.90;99.90
16625;DHT22;8426;48.496;9.098;2022-12-20T02:02:58;0.90;99.90
16625;DHT22;8426;48.496;9.098;2022-12-20T02:08:04;1.00;99.90
16625;DHT22;8426;48.496;9.098;2022-12-20T02:13:15;1.10;99.90
16625;DHT22;8426;48.496;9.098;2022-12-20T02:18:26;1.20;99.90
16625;DHT22;8426;48.496;9.098;2022-12-20T02:29:20;1.40;99.90
16625;DHT22;8426;48.496;9.098;2022-12-20T02:34:31;1.40;99.90
16625;DHT22;8426;48.496;9.098;2022-12-20T02:39:37;1.30;99.90
16625;DHT22;8426;48.496;9.098;2022-12-20T02:44:45;1.40;99.90
16625;DHT22;8426;48.496;9.098;2022-12-20T02:50:09;1.50;99.90
16625;DHT22;8426;48.496;9.098;2022-12-20T02:55:13;1.50;99.90
16625;DHT22;8426;48.496;9.098;2022-12-20T03:00:18;1.40;99.90
16625;DHT22;8426;48.496;9.098;2022-12-20T03:05:27;1.20;99.90
16625;DHT22;8426;48.496;9.098;2022-12-20T03:10:30;1.10;99.90
16625;DHT22;8426;48.496;9.098;2022-12-20T03:15:33;1.00;99.90
16625;DHT22;8426;48.496;9.098;2022-12-20T03:20:38;1.00;99.90
16625;DHT22;8426;48.496;9.098;2022-12-20T03:25:42;1.00;99.90
16625;DHT22;8426;48.496;9.098;2022-12-20T03:30:45;1.00;99.90
16625;DHT22;8426;48.496;9.098;2022-12-20T03:35:50;1.00;99.90
16625;DHT22;8426;48.496;9.098;2022-12-20T03:40:53;0.90;99.90
16625;DHT22;8426;48.496;9.098;2022-12-20T03:45:57;0.90;99.90
16625;DHT22;8426;48.496;9.098;2022-12-20T03:51:01;0.90;99.90
16625;DHT22;8426;48.496;9.098;2022-12-20T03:56:05;0.80;99.90
16625;DHT22;8426;48.496;9.098;2022-12-20T04:01:20;0.80;99.90
16625;DHT22;8426;48.496;9.098;2022-12-20T04:06:26;0.90;99.90
16625;DHT22;8426;48.496;9.098;2022-12-20T04:11:30;1.00;99.90
16625;DHT22;8426;48.496;9.098;2022-12-20T04:16:33;1.10;99.90
16625;DHT22;8426;48.496;9.098;2022-12-20T04:21:38;1.20;99.90
16625;DHT22;8426;48.496;9.098;2022-12-20T04:26:42;1.10;99.90
16625;DHT22;8426;48.496;9.098;2022-12-20T04:31:45;1.20;99.90
16625;DHT22;8426;48.496;9.098;2022-12-20T04:36:50;1.20;99.90
16625;DHT22;8426;48.496;9.098;2022-12-20T04:41:53;1.40;99.90
16625;DHT22;8426;48.496;9.098;2022-12-20T04:46:57;1.60;99.90
16625;DHT22;8426;48.496;9.098;2022-12-20T04:52:02;1.70;99.90
16625;DHT22;8426;48.496;9.098;2022-12-20T04:57:19;1.80;99.90
16625;DHT22;8426;48.496;9.098;2022-12-20T05:02:22;1.70;99.90
16625;DHT22;8426;48.496;9.098;2022-12-20T05:07:27;1.80;99.90
16625;DHT22;8426;48.496;9.098;2022-12-20T05:12:30;1.80;99.90
16625;DHT22;8426;48.496;9.098;2022-12-20T05:17:33;1.80;99.90
16625;DHT22;8426;48.496;9.098;2022-12-20T05:22:39;1.80;99.90
16625;DHT22;8426;48.496;9.098;2022-12-20T05:27:59;1.70;99.90
16625;DHT22;8426;48.496;9.098;2022-12-20T05:33:03;1.70;99.90
16625;DHT22;8426;48.496;9.098;2022-12-20T05:38:07;1.60;99.90
16625;DHT22;8426;48.496;9.098;2022-12-20T05:43:11;1.50;99.90
16625;DHT22;8426;48.496;9.098;2022-12-20T05:48:15;1.40;99.90
16625;DHT22;8426;48.496;9.098;2022-12-20T05:53:20;1.40;99.90
16625;DHT22;8426;48.496;9.098;2022-12-20T05:58:24;1.30;99.90
16625;DHT22;8426;48.496;9.098;2022-12-20T06:03:27;1.30;99.90
16625;DHT22;8426;48.496;9.098;2022-12-20T06:08:33;1.40;99.90
16625;DHT22;8426;48.496;9.098;2022-12-20T06:13:38;1.30;99.90
16625;DHT22;8426;48.496;9.098;2022-12-20T06:18:41;1.30;99.90
16625;DHT22;8426;48.496;9.098;2022-12-20T06:23:46;1.30;99.90
16625;DHT22;8426;48.496;9.098;2022-12-20T06:28:49;1.30;99.90
16625;DHT22;8426;48.496;9.098;2022-12-20T06:33:56;1.40;99.90
16625;DHT22;8426;48.496;9.098;2022-12-20T06:39:05;1.50;99.90
16625;DHT22;8426;48.496;9.098;2022-12-20T06:44:11;1.50;99.90
16625;DHT22;8426;48.496;9.098;2022-12-20T06:49:14;1.60;99.90
16625;DHT22;8426;48.496;9.098;2022-12-20T06:54:19;1.50;99.90
16625;DHT22;8426;48.496;9.098;2022-12-20T06:59:22;1.50;99.90
16625;DHT22;8426;48.496;9.098;2022-12-20T07:04:27;1.50;99.90
16625;DHT22;8426;48.496;9.098;2022-12-20T07:09:32;1.50;99.90
16625;DHT22;8426;48.496;9.098;2022-12-20T07:14:35;1.40;99.90
16625;DHT22;8426;48.496;9.098;2022-12-20T07:19:38;1.50;99.90
16625;DHT22;8426;48.496;9.098;2022-12-20T07:24:52;1.50;99.90
16625;DHT22;8426;48.496;9.098;2022-12-20T07:29:55;1.40;99.90
16625;DHT22;8426;48.496;9.098;2022-12-20T07:34:59;1.40;99.90
16625;DHT22;8426;48.496;9.098;2022-12-20T07:40:05;1.50;99.90
16625;DHT22;8426;48.496;9.098;2022-12-20T07:45:09;1.60;99.90
16625;DHT22;8426;48.496;9.098;2022-12-20T07:50:12;1.70;99.90
16625;DHT22;8426;48.496;9.098;2022-12-20T07:55:17;1.70;99.90
16625;DHT22;8426;48.496;9.098;2022-12-20T08:00:21;1.80;99.90
16625;DHT22;8426;48.496;9.098;2022-12-20T08:05:25;1.90;99.90
16625;DHT22;8426;48.496;9.098;2022-12-20T08:10:30;2.10;99.90
16625;DHT22;8426;48.496;9.098;2022-12-20T08:15:34;2.20;99.90
16625;DHT22;8426;48.496;9.098;2022-12-20T08:20:38;2.20;99.90
16625;DHT22;8426;48.496;9.098;2022-12-20T08:25:43;2.30;99.90
16625;DHT22;8426;48.496;9.098;2022-12-20T08:30:46;2.40;99.90
16625;DHT22;8426;48.496;9.098;2022-12-20T08:35:56;2.60;99.90
16625;DHT22;8426;48.496;9.098;2022-12-20T08:41:06;2.90;99.90
16625;DHT22;8426;48.496;9.098;2022-12-20T08:46:11;3.20;99.90
16625;DHT22;8426;48.496;9.098;2022-12-20T08:51:15;3.30;99.90
16625;DHT22;8426;48.496;9.098;2022-12-20T08:56:20;3.30;99.90
16625;DHT22;8426;48.496;9.098;2022-12-20T09:01:23;3.30;99.90
16625;DHT22;8426;48.496;9.098;2022-12-20T09:06:28;3.30;99.90
16625;DHT22;8426;48.496;9.098;2022-12-20T09:11:33;3.20;99.90
16625;DHT22;8426;48.496;9.098;2022-12-20T09:16:36;3.20;99.90
16625;DHT22;8426;48.496;9.098;2022-12-20T09:21:40;3.30;99.90
16625;DHT22;8426;48.496;9.098;2022-12-20T09:26:44;3.40;99.90
16625;DHT22;8426;48.496;9.098;2022-12-20T09:31:52;3.60;99.90
16625;DHT22;8426;48.496;9.098;2022-12-20T09:36:56;3.80;99.90
16625;DHT22;8426;48.496;9.098;2022-12-20T09:42:06;4.20;99.90
16625;DHT22;8426;48.496;9.098;2022-12-20T09:47:14;4.40;99.90
16625;DHT22;8426;48.496;9.098;2022-12-20T09:58:11;5.00;99.90
16625;DHT22;8426;48.496;9.098;2022-12-20T10:03:20;5.20;99.90
16625;DHT22;8426;48.496;9.098;2022-12-20T10:14:00;5.30;99.90
16625;DHT22;8426;48.496;9.098;2022-12-20T10:19:30;5.40;99.90
16625;DHT22;8426;48.496;9.098;2022-12-20T10:24:38;5.40;99.90
16625;DHT22;8426;48.496;9.098;2022-12-20T10:29:44;5.30;99.90
16625;DHT22;8426;48.496;9.098;2022-12-20T10:34:53;5.10;99.90
16625;DHT22;8426;48.496;9.098;2022-12-20T10:39:57;4.70;99.90
16625;DHT22;8426;48.496;9.098;2022-12-20T10:45:26;4.30;99.90
16625;DHT22;8426;48.496;9.098;2022-12-20T10:50:36;4.20;99.90
16625;DHT22;8426;48.496;9.098;2022-12-20T10:55:41;4.10;99.90
16625;DHT22;8426;48.496;9.098;2022-12-20T11:00:47;4.20;99.90
16625;DHT22;8426;48.496;9.098;2022-12-20T11:05:56;4.30;99.90
16625;DHT22;8426;48.496;9.098;2022-12-20T11:11:12;4.40;99.90
16625;DHT22;8426;48.496;9.098;2022-12-20T11:16:28;4.20;99.90
16625;DHT22;8426;48.496;9.098;2022-12-20T11:21:41;4.30;99.90
16625;DHT22;8426;48.496;9.098;2022-12-20T11:27:09;4.40;99.90
16625;DHT22;8426;48.496;9.098;2022-12-20T11:32:27;4.70;99.90
16625;DHT22;8426;48.496;9.098;2022-12-20T11:37:42;5.00;99.90
16625;DHT22;8426;48.496;9.098;2022-12-20T11:42:57;5.20;99.90
16625;DHT22;8426;48.496;9.098;2022-12-20T11:53:50;5.80;99.90
16625;DHT22;8426;48.496;9.098;2022-12-20T11:59:00;5.90;99.90
16625;DHT22;8426;48.496;9.098;2022-12-20T12:04:12;5.70;99.90
16625;DHT22;8426;48.496;9.098;2022-12-20T12:09:21;5.30;99.90
16625;DHT22;8426;48.496;9.098;2022-12-20T12:14:37;5.10;99.90
16625;DHT22;8426;48.496;9.098;2022-12-20T12:19:47;4.90;99.90
16625;DHT22;8426;48.496;9.098;2022-12-20T12:24:55;5.30;99.90
16625;DHT22;8426;48.496;9.098;2022-12-20T12:29:59;5.90;99.90
16625;DHT22;8426;48.496;9.098;2022-12-20T12:41:02;6.70;99.90
16625;DHT22;8426;48.496;9.098;2022-12-20T12:46:11;6.50;99.90
16625;DHT22;8426;48.496;9.098;2022-12-20T12:51:23;6.20;99.90
16625;DHT22;8426;48.496;9.098;2022-12-20T12:56:38;5.90;99.90
16625;DHT22;8426;48.496;9.098;2022-12-20T13:01:48;6.00;99.90
16625;DHT22;8426;48.496;9.098;2022-12-20T13:07:02;6.00;99.90
16625;DHT22;8426;48.496;9.098;2022-12-20T13:17:54;5.60;99.90
16625;DHT22;8426;48.496;9.098;2022-12-20T13:23:13;5.40;99.90
16625;DHT22;8426;48.496;9.098;2022-12-20T13:28:44;5.30;99.90
16625;DHT22;8426;48.496;9.098;2022-12-20T13:33:50;5.20;99.90
16625;DHT22;8426;48.496;9.098;2022-12-20T13:38:55;5.20;99.90
16625;DHT22;8426;48.496;9.098;2022-12-20T13:44:07;5.00;99.90
16625;DHT22;8426;48.496;9.098;2022-12-20T13:49:19;5.00;99.90
16625;DHT22;8426;48.496;9.098;2022-12-20T13:54:25;4.90;99.90
16625;DHT22;8426;48.496;9.098;2022-12-20T13:59:31;5.00;99.90
16625;DHT22;8426;48.496;9.098;2022-12-20T14:04:40;5.50;99.90
16625;DHT22;8426;48.496;9.098;2022-12-20T14:09:46;5.70;99.90
16625;DHT22;8426;48.496;9.098;2022-12-20T14:14:50;6.10;99.90
16625;DHT22;8426;48.496;9.098;2022-12-20T14:20:14;6.50;99.90
16625;DHT22;8426;48.496;9.098;2022-12-20T14:25:26;6.60;99.90
16625;DHT22;8426;48.496;9.098;2022-12-20T14:30:33;6.50;99.90
16625;DHT22;8426;48.496;9.098;2022-12-20T14:35:45;6.00;99.90
16625;DHT22;8426;48.496;9.098;2022-12-20T14:40:49;5.50;99.90
16625;DHT22;8426;48.496;9.098;2022-12-20T14:46:22;5.00;99.90
16625;DHT22;8426;48.496;9.098;2022-12-20T14:51:26;4.60;99.90
16625;DHT22;8426;48.496;9.098;2022-12-20T14:56:30;4.20;99.90
16625;DHT22;8426;48.496;9.098;2022-12-20T15:01:34;4.00;99.90
16625;DHT22;8426;48.496;9.098;2022-12-20T15:06:46;3.90;99.90
16625;DHT22;8426;48.496;9.098;2022-12-20T15:11:51;3.90;99.90
16625;DHT22;8426;48.496;9.098;2022-12-20T15:16:54;3.80;99.90
16625;DHT22;8426;48.496;9.098;2022-12-20T15:22:00;3.80;99.90
16625;DHT22;8426;48.496;9.098;2022-12-20T15:27:08;3.70;99.90
16625;DHT22;8426;48.496;9.098;2022-12-20T15:32:21;3.60;99.90
16625;DHT22;8426;48.496;9.098;2022-12-20T15:37:27;3.50;99.90
16625;DHT22;8426;48.496;9.098;2022-12-20T15:42:31;3.50;99.90
16625;DHT22;8426;48.496;9.098;2022-12-20T15:47:34;3.50;99.90
16625;DHT22;8426;48.496;9.098;2022-12-20T15:52:38;3.60;99.90
16625;DHT22;8426;48.496;9.098;2022-12-20T15:57:42;3.60;99.90
16625;DHT22;8426;48.496;9.098;2022-12-20T16:02:46;3.40;99.90
16625;DHT22;8426;48.496;9.098;2022-12-20T16:07:54;3.20;99.90
16625;DHT22;8426;48.496;9.098;2022-12-20T16:12:57;3.30;99.90
16625;DHT22;8426;48.496;9.098;2022-12-20T16:18:01;3.40;99.90
16625;DHT22;8426;48.496;9.098;2022-12-20T16:23:12;3.40;99.90
16625;DHT22;8426;48.496;9.098;2022-12-20T16:28:17;3.40;99.90
16625;DHT22;8426;48.496;9.098;2022-12-20T16:33:21;3.40;99.90
16625;DHT22;8426;48.496;9.098;2022-12-20T16:38:26;3.50;99.90
16625;DHT22;8426;48.496;9.098;2022-12-20T16:43:30;3.60;99.90
16625;DHT22;8426;48.496;9.098;2022-12-20T16:48:40;3.60;99.90
16625;DHT22;8426;48.496;9.098;2022-12-20T16:53:45;3.50;99.90
16625;DHT22;8426;48.496;9.098;2022-12-20T16:59:08;3.40;99.90
16625;DHT22;8426;48.496;9.098;2022-12-20T17:04:24;3.20;99.90
16625;DHT22;8426;48.496;9.098;2022-12-20T17:09:29;3.10;99.90
16625;DHT22;8426;48.496;9.098;2022-12-20T17:14:32;3.10;99.90
16625;DHT22;8426;48.496;9.098;2022-12-20T17:19:35;3.10;99.90
16625;DHT22;8426;48.496;9.098;2022-12-20T17:24:43;3.00;99.90
16625;DHT22;8426;48.496;9.098;2022-12-20T17:29:47;3.10;99.90
16625;DHT22;8426;48.496;9.098;2022-12-20T17:34:52;3.20;99.90
16625;DHT22;8426;48.496;9.098;2022-12-20T17:39:57;3.30;99.90
16625;DHT22;8426;48.496;9.098;2022-12-20T17:45:00;3.30;99.90
16625;DHT22;8426;48.496;9.098;2022-12-20T17:50:05;3.30;99.90
16625;DHT22;8426;48.496;9.098;2022-12-20T17:55:17;3.20;99.90
16625;DHT22;8426;48.496;9.098;2022-12-20T18:00:25;3.20;99.90
16625;DHT22;8426;48.496;9.098;2022-12-20T18:05:39;3.20;99.90
16625;DHT22;8426;48.496;9.098;2022-12-20T18:10:46;3.20;99.90
16625;DHT22;8426;48.496;9.098;2022-12-20T18:15:49;3.10;99.90
16625;DHT22;8426;48.496;9.098;2022-12-20T18:21:00;3.10;99.90
16625;DHT22;8426;48.496;9.098;2022-12-20T18:26:09;3.20;99.90
16625;DHT22;8426;48.496;9.098;2022-12-20T18:31:14;3.10;99.90
16625;DHT22;8426;48.496;9.098;2022-12-20T18:36:22;3.10;99.90
16625;DHT22;8426;48.496;9.098;2022-12-20T18:41:28;3.10;99.90
16625;DHT22;8426;48.496;9.098;2022-12-20T18:46:32;3.10;99.90
16625;DHT22;8426;48.496;9.098;2022-12-20T18:51:35;3.30;99.90
16625;DHT22;8426;48.496;9.098;2022-12-20T18:56:40;3.40;99.90
16625;DHT22;8426;48.496;9.098;2022-12-20T19:01:43;3.40;99.90
16625;DHT22;8426;48.496;9.098;2022-12-20T19:06:47;3.30;99.90
16625;DHT22;8426;48.496;9.098;2022-12-20T19:11:51;3.20;99.90
16625;DHT22;8426;48.496;9.098;2022-12-20T19:16:58;3.10;99.90
16625;DHT22;8426;48.496;9.098;2022-12-20T19:22:02;3.10;99.90
16625;DHT22;8426;48.496;9.098;2022-12-20T19:27:08;2.90;99.90
16625;DHT22;8426;48.496;9.098;2022-12-20T19:32:14;2.90;99.90
16625;DHT22;8426;48.496;9.098;2022-12-20T19:37:29;2.80;99.90
16625;DHT22;8426;48.496;9.098;2022-12-20T19:42:42;2.80;99.90
16625;DHT22;8426;48.496;9.098;2022-12-20T19:47:45;2.90;99.90
16625;DHT22;8426;48.496;9.098;2022-12-20T19:52:50;2.90;99.90
16625;DHT22;8426;48.496;9.098;2022-12-20T19:57:55;3.00;99.90
16625;DHT22;8426;48.496;9.098;2022-12-20T20:02:58;3.00;99.90
16625;DHT22;8426;48.496;9.098;2022-12-20T20:08:02;3.10;99.90
16625;DHT22;8426;48.496;9.098;2022-12-20T20:13:07;3.20;99.90
16625;DHT22;8426;48.496;9.098;2022-12-20T20:18:10;3.30;99.90
16625;DHT22;8426;48.496;9.098;2022-12-20T20:23:14;3.30;99.90
16625;DHT22;8426;48.496;9.098;2022-12-20T20:28:19;3.20;99.90
16625;DHT22;8426;48.496;9.098;2022-12-20T20:33:32;3.10;99.90
16625;DHT22;8426;48.496;9.098;2022-12-20T20:38:35;3.00;99.90
16625;DHT22;8426;48.496;9.098;2022-12-20T20:43:40;3.00;99.90
16625;DHT22;8426;48.496;9.098;2022-12-20T20:48:44;3.00;99.90
16625;DHT22;8426;48.496;9.098;2022-12-20T20:53:47;3.00;99.90
16625;DHT22;8426;48.496;9.098;2022-12-20T20:58:52;3.00;99.90
16625;DHT22;8426;48.496;9.098;2022-12-20T21:04:02;3.10;99.90
16625;DHT22;8426;48.496;9.098;2022-12-20T21:09:06;3.20;99.90
16625;DHT22;8426;48.496;9.098;2022-12-20T21:14:10;3.30;99.90
16625;DHT22;8426;48.496;9.098;2022-12-20T21:19:14;3.40;99.90
16625;DHT22;8426;48.496;9.098;2022-12-20T21:24:18;3.60;99.90
16625;DHT22;8426;48.496;9.098;2022-12-20T21:29:24;3.70;99.90
16625;DHT22;8426;48.496;9.098;2022-12-20T21:34:27;3.70;99.90
16625;DHT22;8426;48.496;9.098;2022-12-20T21:39:31;3.60;99.90
16625;DHT22;8426;48.496;9.098;2022-12-20T21:44:36;3.50;99.90
16625;DHT22;8426;48.496;9.098;2022-12-20T21:49:39;3.40;99.90
16625;DHT22;8426;48.496;9.098;2022-12-20T21:54:43;3.30;99.90
16625;DHT22;8426;48.496;9.098;2022-12-20T21:59:47;3.10;99.90
16625;DHT22;8426;48.496;9.098;2022-12-20T22:04:51;3.00;99.90
16625;DHT22;8426;48.496;9.098;2022-12-20T22:09:54;3.00;99.90
16625;DHT22;8426;48.496;9.098;2022-12-20T22:14:59;3.00;99.90
16625;DHT22;8426;48.496;9.098;2022-12-20T22:20:03;2.90;99.90
16625;DHT22;8426;48.496;9.098;2022-12-20T22:25:07;2.90;99.90
16625;DHT22;8426;48.496;9.098;2022-12-20T22:30:12;2.90;99.90
16625;DHT22;8426;48.496;9.098;2022-12-20T22:35:15;2.90;99.90
16625;DHT22;8426;48.496;9.098;2022-12-20T22:40:23;2.80;99.90
16625;DHT22;8426;48.496;9.098;2022-12-20T22:45:28;2.90;99.90
16625;DHT22;8426;48.496;9.098;2022-12-20T22:50:31;2.90;99.90
16625;DHT22;8426;48.496;9.098;2022-12-20T22:55:35;3.10;99.90
16625;DHT22;8426;48.496;9.098;2022-12-20T23:00:39;3.20;99.90
16625;DHT22;8426;48.496;9.098;2022-12-20T23:05:50;3.10;99.90
16625;DHT22;8426;48.496;9.098;2022-12-20T23:10:54;3.10;99.90
16625;DHT22;8426;48.496;9.098;2022-12-20T23:16:17;3.20;99.90
16625;DHT22;8426;48.496;9.098;2022-12-20T23:21:20;3.10;99.90
16625;DHT22;8426;48.496;9.098;2022-12-20T23:26:42;3.20;99.90
16625;DHT22;8426;48.496;9.098;2022-12-20T23:31:46;3.30;99.90
16625;DHT22;8426;48.496;9.098;2022-12-20T23:36:50;3.30;99.90
16625;DHT22;8426;48.496;9.098;2022-12-20T23:41:54;3.30;99.90
16625;DHT22;8426;48.496;9.098;2022-12-20T23:46:59;3.40;99.90
16625;DHT22;8426;48.496;9.098;2022-12-20T23:52:02;3.40;99.90
16625;DHT22;8426;48.496;9.098;2022-12-20T23:57:06;3.50;99.90
